Time;durP1;ratioP1;P1;durP2;ratioP2;P2;SDS_P1;SDS_P2;PMS_P1;PMS_P2;Temp;Humidity;BMP_temperature;BMP_pressure;BME280_temperature;BME280_humidity;BME280_pressure;Samples;Min_cycle;Max_cycle;Signal;HPM_P1;HPM_P2
2021/10/23 00:01:19;;;;;;;24.80;6.45;;;5.60;99.90;;;;;;5108780;28;20038;-75
2021/10/23 00:03:45;;;;;;;15.13;6.63;;;5.60;99.90;;;;;;5104949;28;20046;-75
2021/10/23 00:06:10;;;;;;;20.23;6.50;;;5.60;99.90;;;;;;5104830;28;20028;-75
2021/10/23 00:08:36;;;;;;;22.45;7.53;;;5.60;99.90;;;;;;5110922;28;20040;-75
2021/10/23 00:11:01;;;;;;;15.85;6.57;;;5.60;99.90;;;;;;5088450;28;20371;-75
2021/10/23 00:13:27;;;;;;;13.45;5.90;;;5.50;99.90;;;;;;5108056;28;20023;-74
2021/10/23 00:15:52;;;;;;;20.95;6.97;;;5.50;99.90;;;;;;5105896;28;20023;-75
2021/10/23 00:18:18;;;;;;;18.98;6.20;;;5.50;99.90;;;;;;5114656;28;20392;-75
2021/10/23 00:20:43;;;;;;;30.33;7.40;;;5.50;99.90;;;;;;5093298;28;20027;-75
2021/10/23 00:23:09;;;;;;;16.20;6.47;;;5.50;99.90;;;;;;5095518;28;20542;-75
2021/10/23 00:25:34;;;;;;;20.65;6.95;;;5.50;99.90;;;;;;5107277;28;20605;-75
2021/10/23 00:28:00;;;;;;;18.33;6.88;;;5.50;99.90;;;;;;5108185;28;20059;-75
2021/10/23 00:30:26;;;;;;;19.55;7.53;;;5.60;99.90;;;;;;5111586;28;20016;-75
2021/10/23 00:32:52;;;;;;;15.30;6.88;;;5.60;99.90;;;;;;5107752;28;20511;-75
2021/10/23 00:35:17;;;;;;;27.10;7.10;;;5.60;99.90;;;;;;5107114;28;20035;-75
2021/10/23 00:37:43;;;;;;;20.05;7.32;;;5.60;99.90;;;;;;5107830;27;20032;-75
2021/10/23 00:40:10;;;;;;;25.25;8.63;;;5.70;99.90;;;;;;5109271;28;20031;-75
2021/10/23 00:42:36;;;;;;;18.95;7.70;;;5.80;99.90;;;;;;5110518;28;20527;-75
2021/10/23 00:45:02;;;;;;;22.80;7.50;;;5.80;99.90;;;;;;5110515;28;20032;-75
2021/10/23 00:47:28;;;;;;;18.85;6.65;;;5.80;99.90;;;;;;5093728;28;20479;-75
2021/10/23 00:49:54;;;;;;;17.92;6.95;;;5.80;99.90;;;;;;5111579;28;20066;-75
2021/10/23 00:52:22;;;;;;;19.65;7.28;;;5.90;99.90;;;;;;5090718;28;20489;-75
2021/10/23 00:54:48;;;;;;;18.17;7.70;;;5.90;99.90;;;;;;5089240;28;20028;-75
2021/10/23 00:57:14;;;;;;;19.25;6.72;;;5.80;99.90;;;;;;5108036;28;20031;-75
2021/10/23 00:59:40;;;;;;;17.77;7.63;;;5.90;99.90;;;;;;5107478;28;20028;-75
2021/10/23 01:02:06;;;;;;;15.75;6.28;;;5.90;99.90;;;;;;5107589;28;20041;-75
2021/10/23 01:04:32;;;;;;;15.20;6.25;;;5.90;99.90;;;;;;5111059;28;20502;-75
2021/10/23 01:06:58;;;;;;;16.23;6.28;;;5.90;99.90;;;;;;5104445;28;20028;-74
2021/10/23 01:09:24;;;;;;;22.50;7.03;;;5.80;99.90;;;;;;5104330;28;20035;-75
2021/10/23 01:11:51;;;;;;;17.10;6.95;;;5.80;99.90;;;;;;5091020;28;20032;-75
2021/10/23 01:14:19;;;;;;;20.83;6.57;;;5.80;99.90;;;;;;5107002;28;20019;-75
2021/10/23 01:16:47;;;;;;;15.95;6.38;;;5.70;99.90;;;;;;5107850;28;20024;-74
2021/10/23 01:19:13;;;;;;;17.17;7.07;;;5.70;99.90;;;;;;5106368;28;20055;-75
2021/10/23 01:21:40;;;;;;;17.55;6.53;;;5.70;99.90;;;;;;5112413;28;20023;-75
2021/10/23 01:24:08;;;;;;;17.35;7.05;;;5.60;99.90;;;;;;5104620;28;20491;-75
2021/10/23 01:26:35;;;;;;;15.55;6.18;;;5.60;99.90;;;;;;5110722;28;20042;-75
2021/10/23 01:29:00;;;;;;;14.13;6.35;;;5.50;99.90;;;;;;5108226;28;20032;-75
2021/10/23 01:31:28;;;;;;;17.38;6.47;;;5.50;99.90;;;;;;5108078;28;20427;-75
2021/10/23 01:33:54;;;;;;;22.58;7.47;;;5.50;99.90;;;;;;5108122;28;20042;-75
2021/10/23 01:36:20;;;;;;;14.93;6.68;;;5.50;99.90;;;;;;5112107;28;20094;-75
2021/10/23 01:38:46;;;;;;;18.25;6.90;;;5.40;99.90;;;;;;5104707;28;20104;-74
2021/10/23 01:41:13;;;;;;;14.73;6.15;;;5.40;99.90;;;;;;5109742;28;20032;-75
2021/10/23 01:43:39;;;;;;;23.08;6.20;;;5.40;99.90;;;;;;5090797;28;20102;-75
2021/10/23 01:46:06;;;;;;;19.50;6.53;;;5.40;99.90;;;;;;5123622;27;20435;-75
2021/10/23 01:48:36;;;;;;;22.80;7.07;;;5.40;99.90;;;;;;5110003;28;20085;-75
2021/10/23 01:51:03;;;;;;;22.58;7.40;;;5.40;99.90;;;;;;5108022;28;20520;-75
2021/10/23 01:53:32;;;;;;;14.07;6.28;;;5.50;99.90;;;;;;5103717;28;20032;-75
2021/10/23 01:55:58;;;;;;;17.95;7.00;;;5.40;99.90;;;;;;5108731;28;20052;-75
2021/10/23 01:58:24;;;;;;;15.85;6.72;;;5.40;99.90;;;;;;5110608;28;20059;-75
2021/10/23 02:00:49;;;;;;;26.38;8.80;;;5.50;99.90;;;;;;5083749;28;20119;-75
2021/10/23 02:03:15;;;;;;;19.83;6.18;;;5.40;99.90;;;;;;5107170;28;20420;-75
2021/10/23 02:05:40;;;;;;;29.75;8.82;;;5.40;99.90;;;;;;5110664;28;20020;-75
2021/10/23 02:08:06;;;;;;;21.45;7.82;;;5.40;99.90;;;;;;5109162;28;20031;-75
2021/10/23 02:10:32;;;;;;;17.48;7.10;;;5.40;99.90;;;;;;5107600;28;20420;-74
2021/10/23 02:12:58;;;;;;;22.45;8.90;;;5.40;99.90;;;;;;5108352;28;20024;-75
2021/10/23 02:15:24;;;;;;;21.13;8.10;;;5.40;99.90;;;;;;5090630;28;20086;-74
2021/10/23 02:17:49;;;;;;;21.90;9.05;;;5.30;99.90;;;;;;5088420;28;20031;-74
2021/10/23 02:20:15;;;;;;;21.15;7.90;;;5.30;99.90;;;;;;5090931;28;20043;-74
2021/10/23 02:22:41;;;;;;;21.20;9.45;;;5.30;99.90;;;;;;5104738;28;20024;-73
2021/10/23 02:25:09;;;;;;;15.85;9.27;;;5.40;99.90;;;;;;5106802;28;20056;-74
2021/10/23 02:27:35;;;;;;;19.08;9.93;;;5.40;99.90;;;;;;5104963;28;20047;-74
2021/10/23 02:30:00;;;;;;;22.17;11.25;;;5.40;99.90;;;;;;5106770;28;20023;-74
2021/10/23 02:32:26;;;;;;;24.10;11.57;;;5.50;99.90;;;;;;5106132;28;20094;-74
2021/10/23 02:34:52;;;;;;;20.92;10.55;;;5.50;99.90;;;;;;5096567;28;20020;-74
2021/10/23 02:37:17;;;;;;;19.00;10.13;;;5.60;99.90;;;;;;5109460;28;20074;-74
2021/10/23 02:39:43;;;;;;;22.85;10.40;;;5.60;99.90;;;;;;5106057;28;20495;-74
2021/10/23 02:42:09;;;;;;;25.08;11.15;;;5.60;99.90;;;;;;5111645;28;20030;-74
2021/10/23 02:44:34;;;;;;;24.98;10.70;;;5.50;99.90;;;;;;5088009;28;20028;-74
2021/10/23 02:47:00;;;;;;;19.48;10.70;;;5.50;99.90;;;;;;5111167;28;20027;-73
2021/10/23 02:49:26;;;;;;;24.27;11.52;;;5.50;99.90;;;;;;5108946;28;20380;-74
2021/10/23 02:51:52;;;;;;;19.15;11.13;;;5.50;99.90;;;;;;5109177;28;20106;-74
2021/10/23 02:54:17;;;;;;;27.95;12.30;;;5.50;99.90;;;;;;5106094;28;20031;-74
2021/10/23 02:56:43;;;;;;;25.75;12.07;;;5.40;99.90;;;;;;5103174;28;20385;-74
2021/10/23 02:59:09;;;;;;;23.48;12.70;;;5.40;99.90;;;;;;5106429;28;20024;-74
2021/10/23 03:01:34;;;;;;;24.45;12.80;;;5.40;99.90;;;;;;5107486;28;20540;-74
2021/10/23 03:04:00;;;;;;;23.92;13.35;;;5.30;99.90;;;;;;5104006;28;20027;-73
2021/10/23 03:06:25;;;;;;;32.17;13.13;;;5.30;99.90;;;;;;5087736;28;20111;-74
2021/10/23 03:08:51;;;;;;;27.02;14.10;;;5.20;99.90;;;;;;5090913;28;20050;-74
2021/10/23 03:11:16;;;;;;;33.70;14.23;;;5.20;99.90;;;;;;5097792;28;20043;-74
2021/10/23 03:13:42;;;;;;;28.52;14.85;;;5.20;99.90;;;;;;5107261;28;20055;-74
2021/10/23 03:16:10;;;;;;;27.25;15.00;;;5.20;99.90;;;;;;5108050;28;20552;-74
2021/10/23 03:18:36;;;;;;;32.03;14.65;;;5.10;99.90;;;;;;5107460;28;20029;-75
2021/10/23 03:21:01;;;;;;;26.80;15.20;;;5.10;99.90;;;;;;5107291;28;20392;-75
2021/10/23 03:23:27;;;;;;;34.03;16.48;;;5.10;99.90;;;;;;5104903;28;20036;-74
2021/10/23 03:25:52;;;;;;;38.95;17.67;;;5.10;99.90;;;;;;5107090;28;20055;-74
2021/10/23 03:28:18;;;;;;;30.60;17.08;;;5.10;99.90;;;;;;5108726;28;20119;-74
2021/10/23 03:30:45;;;;;;;34.92;17.17;;;5.10;99.90;;;;;;5104954;28;20040;-74
2021/10/23 03:33:11;;;;;;;29.88;17.83;;;5.10;99.90;;;;;;5105676;28;20026;-74
2021/10/23 03:35:36;;;;;;;41.95;20.00;;;5.00;99.90;;;;;;5088450;28;20420;-74
2021/10/23 03:38:02;;;;;;;37.00;20.20;;;5.00;99.90;;;;;;5109409;28;20023;-74
2021/10/23 03:40:28;;;;;;;37.25;19.30;;;5.00;99.90;;;;;;5089173;28;20072;-74
2021/10/23 03:42:54;;;;;;;246.43;25.67;;;5.00;99.90;;;;;;5106139;28;20066;-74
2021/10/23 03:45:19;;;;;;;39.65;19.58;;;5.00;99.90;;;;;;5085955;28;20068;-74
2021/10/23 03:47:45;;;;;;;35.75;18.88;;;4.90;99.90;;;;;;5109327;28;20035;-74
2021/10/23 03:50:12;;;;;;;35.47;19.90;;;5.00;99.90;;;;;;5083959;28;20031;-74
2021/10/23 03:52:38;;;;;;;35.80;21.60;;;4.90;99.90;;;;;;5106728;28;20039;-74
2021/10/23 03:55:04;;;;;;;41.28;19.48;;;4.90;99.90;;;;;;5087489;28;20108;-74
2021/10/23 03:57:30;;;;;;;36.53;20.88;;;4.90;99.90;;;;;;5104721;28;20041;-74
2021/10/23 03:59:56;;;;;;;42.55;21.85;;;4.90;99.90;;;;;;5103232;28;20027;-74
2021/10/23 04:02:22;;;;;;;38.95;22.67;;;4.90;99.90;;;;;;5104993;28;20031;-74
2021/10/23 04:04:47;;;;;;;44.42;22.30;;;4.90;99.90;;;;;;5103605;28;20035;-74
2021/10/23 04:07:13;;;;;;;43.83;21.45;;;4.90;99.90;;;;;;5109458;28;20031;-74
2021/10/23 04:09:38;;;;;;;207.25;25.90;;;4.90;99.90;;;;;;5092191;28;20027;-74
2021/10/23 04:12:04;;;;;;;141.00;21.77;;;4.90;99.90;;;;;;5106456;28;20024;-74
2021/10/23 04:14:30;;;;;;;38.35;22.33;;;4.90;99.90;;;;;;5085103;28;20028;-74
2021/10/23 04:16:55;;;;;;;45.00;23.30;;;4.90;99.90;;;;;;5089377;28;20661;-74
2021/10/23 04:19:21;;;;;;;48.67;26.58;;;4.80;99.90;;;;;;5109123;28;20103;-74
2021/10/23 04:21:46;;;;;;;53.83;26.33;;;4.80;99.90;;;;;;5107704;28;20028;-75
2021/10/23 04:24:12;;;;;;;57.88;28.88;;;4.80;99.90;;;;;;5107850;28;20530;-74
2021/10/23 04:26:38;;;;;;;45.80;26.50;;;4.80;99.90;;;;;;5107463;28;20048;-74
2021/10/23 04:29:04;;;;;;;48.05;28.75;;;4.80;99.90;;;;;;5105861;28;20528;-74
2021/10/23 04:31:30;;;;;;;62.70;31.23;;;4.90;99.90;;;;;;5088902;28;20034;-74
2021/10/23 04:33:55;;;;;;;61.90;32.65;;;4.90;99.90;;;;;;5105673;28;20037;-75
2021/10/23 04:36:21;;;;;;;54.88;29.88;;;4.90;99.90;;;;;;5109889;28;20473;-74
2021/10/23 04:38:47;;;;;;;53.78;28.33;;;4.90;99.90;;;;;;5088796;28;20031;-74
2021/10/23 04:41:12;;;;;;;49.72;28.50;;;4.90;99.90;;;;;;5090614;28;20040;-74
2021/10/23 04:43:38;;;;;;;58.75;30.92;;;4.90;99.90;;;;;;5105723;28;20038;-74
2021/10/23 04:46:04;;;;;;;58.78;33.15;;;4.80;99.90;;;;;;5109418;28;20019;-74
2021/10/23 04:48:31;;;;;;;65.07;33.58;;;4.80;99.90;;;;;;5113327;28;20032;-74
2021/10/23 04:50:56;;;;;;;64.05;32.92;;;4.80;99.90;;;;;;5109522;28;20016;-75
2021/10/23 04:53:22;;;;;;;64.75;35.05;;;4.80;99.90;;;;;;5111561;28;20374;-74
2021/10/23 04:55:48;;;;;;;79.07;37.35;;;4.80;99.90;;;;;;5104639;28;20043;-75
2021/10/23 04:58:13;;;;;;;70.32;34.95;;;4.80;99.90;;;;;;5094452;28;20024;-75
2021/10/23 05:00:39;;;;;;;78.13;34.47;;;4.80;99.90;;;;;;5110399;28;20038;-74
2021/10/23 05:03:05;;;;;;;289.48;42.50;;;4.70;99.90;;;;;;5107678;28;20031;-75
2021/10/23 05:05:30;;;;;;;84.22;33.30;;;4.70;99.90;;;;;;5109133;28;20401;-75
2021/10/23 05:07:56;;;;;;;137.00;36.92;;;4.70;99.90;;;;;;5112644;28;20384;-75
2021/10/23 05:10:21;;;;;;;82.55;31.88;;;4.70;99.90;;;;;;5092106;28;20092;-75
2021/10/23 05:12:47;;;;;;;88.72;32.90;;;4.70;99.90;;;;;;5085789;28;20127;-74
2021/10/23 05:15:12;;;;;;;253.52;41.35;;;4.60;99.90;;;;;;5106001;28;20028;-75
2021/10/23 05:17:38;;;;;;;210.27;36.97;;;4.60;99.90;;;;;;5110972;28;20034;-75
2021/10/23 05:20:05;;;;;;;236.88;39.33;;;4.60;99.90;;;;;;5105713;28;20020;-74
2021/10/23 05:22:31;;;;;;;304.17;39.60;;;4.60;99.90;;;;;;5088536;28;20059;-75
2021/10/23 05:24:57;;;;;;;102.40;29.95;;;4.50;99.90;;;;;;5103762;28;20124;-74
2021/10/23 05:27:22;;;;;;;74.13;32.72;;;4.50;99.90;;;;;;5112352;28;20127;-74
2021/10/23 05:29:48;;;;;;;58.50;33.55;;;4.50;99.90;;;;;;5090965;28;20058;-75
2021/10/23 05:32:13;;;;;;;78.68;36.20;;;4.50;99.90;;;;;;5089536;28;20085;-74
2021/10/23 05:34:39;;;;;;;125.65;38.42;;;4.50;99.90;;;;;;5110733;28;20385;-75
2021/10/23 05:37:05;;;;;;;81.55;35.55;;;4.50;99.90;;;;;;5109996;28;20474;-74
2021/10/23 05:39:30;;;;;;;84.90;35.95;;;4.50;99.90;;;;;;5085333;28;20031;-74
2021/10/23 05:41:56;;;;;;;92.10;37.13;;;4.40;99.90;;;;;;5106898;28;20113;-74
2021/10/23 05:44:21;;;;;;;149.68;36.55;;;4.50;99.90;;;;;;5108675;28;20027;-74
2021/10/23 05:46:47;;;;;;;183.35;39.75;;;4.40;99.90;;;;;;5104288;28;20024;-74
2021/10/23 05:49:13;;;;;;;176.10;37.42;;;4.40;99.90;;;;;;5102370;28;20357;-74
2021/10/23 05:51:41;;;;;;;403.25;46.42;;;4.40;99.90;;;;;;5096857;28;20032;-74
2021/10/23 05:54:07;;;;;;;62.05;30.63;;;4.40;99.90;;;;;;5106294;28;20524;-74
2021/10/23 05:56:32;;;;;;;85.90;30.05;;;4.40;99.90;;;;;;5104846;28;20020;-74
2021/10/23 05:59:14;;;;;;;236.27;40.60;;;4.40;99.90;;;;;;5110089;28;20023;-75
2021/10/23 06:01:44;;;;;;;258.30;41.13;;;4.40;99.90;;;;;;5105982;28;20429;-76
2021/10/23 06:04:10;;;;;;;357.73;51.90;;;4.50;99.90;;;;;;5102876;27;20027;-75
2021/10/23 06:06:36;;;;;;;238.52;43.90;;;4.60;99.90;;;;;;5097328;28;20028;-75
2021/10/23 06:09:04;;;;;;;320.50;48.42;;;4.60;99.90;;;;;;5107732;28;20083;-75
2021/10/23 06:11:30;;;;;;;237.10;43.45;;;4.70;99.90;;;;;;5100939;28;20035;-76
2021/10/23 06:13:58;;;;;;;286.35;47.03;;;4.80;99.90;;;;;;5083728;28;20462;-76
2021/10/23 06:16:23;;;;;;;228.77;45.38;;;4.80;99.90;;;;;;5104612;28;20019;-75
2021/10/23 06:18:49;;;;;;;294.55;48.97;;;4.90;99.90;;;;;;5101880;28;20028;-75
2021/10/23 06:21:15;;;;;;;341.35;55.25;;;5.00;99.90;;;;;;5110385;28;20027;-76
2021/10/23 06:23:41;;;;;;;256.77;51.15;;;5.10;99.90;;;;;;5098293;28;20023;-75
2021/10/23 06:26:06;;;;;;;504.13;67.45;;;5.10;99.90;;;;;;5103385;28;20038;-76
2021/10/23 06:28:36;;;;;;;306.23;50.60;;;5.20;99.90;;;;;;5088707;28;20050;-76
2021/10/23 06:31:02;;;;;;;280.25;52.03;;;5.20;99.90;;;;;;5102841;28;20040;-75
2021/10/23 06:33:28;;;;;;;238.27;46.20;;;5.30;99.90;;;;;;5105225;28;20031;-77
2021/10/23 06:35:54;;;;;;;189.82;44.47;;;5.30;99.90;;;;;;5104427;28;20028;-76
2021/10/23 06:38:19;;;;;;;171.55;46.92;;;5.30;99.90;;;;;;5090421;28;20028;-76
2021/10/23 06:40:45;;;;;;;182.10;44.90;;;5.40;99.90;;;;;;5090381;28;20428;-76
2021/10/23 06:43:14;;;;;;;229.40;49.08;;;5.40;99.90;;;;;;5088537;28;20385;-76
2021/10/23 06:45:48;;;;;;;228.57;46.85;;;5.40;99.90;;;;;;5102435;28;20028;-77
2021/10/23 06:48:14;;;;;;;194.95;42.28;;;5.50;99.90;;;;;;5077496;27;20031;-76
2021/10/23 06:50:39;;;;;;;227.98;44.08;;;5.50;99.90;;;;;;5096006;28;20024;-75
2021/10/23 06:53:05;;;;;;;129.40;34.97;;;5.50;99.90;;;;;;5088743;28;20103;-76
2021/10/23 06:55:30;;;;;;;139.82;35.03;;;5.50;99.90;;;;;;5069919;28;20020;-76
2021/10/23 06:57:56;;;;;;;217.45;46.30;;;5.50;99.90;;;;;;5106086;28;20217;-76
2021/10/23 07:00:21;;;;;;;251.60;49.53;;;5.50;99.90;;;;;;5105339;28;20431;-76
2021/10/23 07:02:47;;;;;;;135.32;40.85;;;5.50;99.90;;;;;;5106777;28;20122;-76
2021/10/23 07:05:15;;;;;;;186.88;45.88;;;5.50;99.90;;;;;;5117653;27;20028;-76
2021/10/23 07:07:41;;;;;;;152.63;41.67;;;5.60;99.90;;;;;;5083439;28;20496;-76
2021/10/23 07:10:07;;;;;;;173.98;44.60;;;5.60;99.90;;;;;;5108672;28;20061;-76
2021/10/23 07:12:33;;;;;;;139.88;41.72;;;5.70;99.90;;;;;;5104367;28;20098;-76
2021/10/23 07:14:59;;;;;;;171.00;45.60;;;5.80;99.90;;;;;;5099890;28;20533;-76
2021/10/23 07:17:24;;;;;;;282.58;61.25;;;5.80;99.90;;;;;;5105707;28;20028;-76
2021/10/23 07:19:52;;;;;;;325.73;67.47;;;5.80;99.90;;;;;;5093839;28;20042;-76
2021/10/23 07:22:18;;;;;;;154.73;58.55;;;5.90;99.90;;;;;;5076091;28;20067;-76
2021/10/23 07:24:43;;;;;;;186.05;60.38;;;5.90;99.90;;;;;;5095818;28;20482;-76
2021/10/23 07:27:09;;;;;;;196.40;59.05;;;6.00;99.90;;;;;;5090184;28;20039;-74
2021/10/23 07:29:34;;;;;;;168.50;57.65;;;6.10;99.90;;;;;;5105064;28;20103;-74
2021/10/23 07:32:00;;;;;;;147.02;56.30;;;6.20;99.90;;;;;;5089353;28;20031;-74
2021/10/23 07:34:25;;;;;;;120.22;51.90;;;6.20;99.90;;;;;;5109645;28;20031;-74
2021/10/23 07:36:51;;;;;;;123.07;52.78;;;6.20;99.90;;;;;;5109858;28;20031;-74
2021/10/23 07:39:16;;;;;;;132.88;54.42;;;6.30;99.90;;;;;;5091472;28;20481;-74
2021/10/23 07:41:42;;;;;;;155.82;58.17;;;6.30;99.90;;;;;;5101377;28;20037;-74
2021/10/23 07:44:14;;;;;;;266.80;68.25;;;6.40;99.90;;;;;;5091367;28;20032;-74
2021/10/23 07:46:39;;;;;;;156.38;58.70;;;6.50;99.90;;;;;;5109852;28;20035;-74
2021/10/23 07:49:08;;;;;;;144.70;60.00;;;6.60;99.90;;;;;;5091399;28;20107;-74
2021/10/23 07:51:35;;;;;;;125.43;55.20;;;6.60;99.90;;;;;;5088450;28;20110;-74
2021/10/23 07:54:01;;;;;;;141.77;61.58;;;6.80;99.90;;;;;;5093467;28;20114;-74
2021/10/23 07:56:26;;;;;;;156.75;64.43;;;6.90;99.90;;;;;;5086143;28;20024;-74
2021/10/23 07:58:52;;;;;;;119.60;57.10;;;7.00;99.90;;;;;;5103697;28;20424;-74
2021/10/23 08:01:17;;;;;;;138.95;61.47;;;7.10;99.90;;;;;;5093539;28;20036;-74
2021/10/23 08:03:43;;;;;;;107.90;55.90;;;7.20;99.90;;;;;;5108230;28;20124;-74
2021/10/23 08:06:09;;;;;;;125.45;59.30;;;7.30;99.90;;;;;;5113876;28;20393;-74
2021/10/23 08:08:35;;;;;;;104.82;55.88;;;7.40;99.90;;;;;;5104245;28;20505;-74
2021/10/23 08:11:02;;;;;;;110.00;55.47;;;7.50;99.90;;;;;;5107289;28;20469;-74
2021/10/23 08:13:29;;;;;;;138.32;64.15;;;7.50;99.90;;;;;;5102305;27;20038;-74
2021/10/23 08:15:54;;;;;;;126.88;60.63;;;7.60;99.90;;;;;;5113027;28;20127;-74
2021/10/23 08:18:20;;;;;;;130.07;59.40;;;7.70;99.90;;;;;;5114509;28;20110;-74
2021/10/23 08:20:45;;;;;;;113.03;59.83;;;7.80;99.90;;;;;;5111753;28;20105;-74
2021/10/23 08:23:12;;;;;;;119.97;61.17;;;7.90;99.90;;;;;;5113912;28;20080;-74
2021/10/23 08:25:38;;;;;;;117.47;61.17;;;8.00;99.90;;;;;;5113029;28;20027;-75
2021/10/23 08:28:04;;;;;;;113.32;59.28;;;8.00;99.90;;;;;;5096982;28;20051;-75
2021/10/23 08:30:31;;;;;;;108.05;57.30;;;8.10;99.90;;;;;;5104050;28;20027;-74
2021/10/23 08:32:57;;;;;;;111.13;58.20;;;8.10;99.90;;;;;;5114689;28;20024;-75
2021/10/23 08:35:23;;;;;;;101.68;56.38;;;8.10;99.90;;;;;;5097284;28;20363;-75
2021/10/23 08:37:50;;;;;;;104.63;53.78;;;8.20;99.90;;;;;;5095905;28;20037;-74
2021/10/23 08:40:16;;;;;;;110.07;58.03;;;8.20;99.90;;;;;;5106402;27;20428;-75
2021/10/23 08:42:43;;;;;;;111.50;60.08;;;8.20;99.90;;;;;;5109568;28;20023;-75
2021/10/23 08:45:11;;;;;;;111.13;58.70;;;8.20;99.90;;;;;;5094634;28;20092;-74
2021/10/23 08:47:38;;;;;;;117.22;61.13;;;8.20;99.90;;;;;;5110828;28;20031;-75
2021/10/23 08:50:05;;;;;;;97.18;55.38;;;8.20;99.90;;;;;;5089565;28;20473;-74
2021/10/23 08:52:31;;;;;;;104.07;57.35;;;8.30;99.90;;;;;;5107515;28;20076;-74
2021/10/23 08:54:57;;;;;;;97.40;55.58;;;8.40;99.90;;;;;;5105953;28;20024;-75
2021/10/23 08:57:26;;;;;;;94.43;55.50;;;8.40;99.90;;;;;;5106993;28;20016;-75
2021/10/23 08:59:55;;;;;;;94.43;55.22;;;8.50;99.90;;;;;;5112180;28;20022;-74
2021/10/23 09:02:23;;;;;;;93.45;55.28;;;8.60;99.90;;;;;;5106594;28;20149;-75
2021/10/23 09:04:49;;;;;;;97.57;54.17;;;8.60;99.90;;;;;;5094162;28;20153;-75
2021/10/23 09:07:16;;;;;;;100.90;56.65;;;8.70;99.90;;;;;;5104099;28;20111;-75
2021/10/23 09:09:53;;;;;;;90.30;52.40;;;8.80;99.90;;;;;;5113109;28;20026;-75
2021/10/23 09:12:20;;;;;;;84.43;50.47;;;8.90;99.90;;;;;;5081128;28;20024;-75
2021/10/23 09:14:48;;;;;;;80.32;50.15;;;8.90;99.90;;;;;;5093965;28;20105;-74
2021/10/23 09:17:14;;;;;;;82.40;50.30;;;8.90;99.90;;;;;;5109009;28;20020;-75
2021/10/23 09:19:43;;;;;;;77.15;49.33;;;8.90;99.90;;;;;;5114686;28;20030;-74
2021/10/23 09:22:21;;;;;;;80.22;47.97;;;9.00;99.90;;;;;;5111862;28;20480;-74
2021/10/23 09:24:46;;;;;;;83.88;49.13;;;9.00;99.90;;;;;;5113107;28;20073;-75
2021/10/23 09:27:14;;;;;;;83.88;51.08;;;9.00;99.90;;;;;;5085025;28;20078;-74
2021/10/23 09:29:40;;;;;;;80.93;49.63;;;9.00;99.90;;;;;;5096239;28;20023;-75
2021/10/23 09:32:09;;;;;;;99.95;56.70;;;9.10;99.90;;;;;;5108342;28;20420;-74
2021/10/23 09:34:36;;;;;;;121.88;63.90;;;9.10;99.90;;;;;;5110004;28;20024;-75
2021/10/23 09:37:03;;;;;;;105.78;58.35;;;9.10;99.90;;;;;;5101948;28;20016;-74
2021/10/23 09:39:30;;;;;;;113.25;63.65;;;9.20;99.90;;;;;;5103275;28;20032;-74
2021/10/23 09:42:22;;;;;;;110.55;61.42;;;9.20;99.90;;;;;;5104235;28;20036;-74
2021/10/23 09:45:02;;;;;;;105.60;59.27;;;9.40;99.90;;;;;;5079163;28;20078;-75
2021/10/23 09:47:32;;;;;;;105.03;60.00;;;9.50;99.90;;;;;;5097105;28;20027;-74
2021/10/23 09:50:14;;;;;;;108.07;61.22;;;9.60;99.90;;;;;;5112432;28;20046;-74
2021/10/23 09:53:03;;;;;;;95.63;56.88;;;9.80;99.90;;;;;;5098198;28;20012;-74
2021/10/23 09:55:48;;;;;;;89.05;52.08;;;9.90;99.90;;;;;;5093639;28;20478;-74
2021/10/23 09:58:18;;;;;;;94.55;53.42;;;10.10;99.90;;;;;;5102488;28;20023;-74
2021/10/23 10:00:46;;;;;;;88.97;52.40;;;10.20;99.90;;;;;;5093163;28;20028;-74
2021/10/23 10:03:12;;;;;;;94.93;57.83;;;10.30;99.90;;;;;;5110489;28;20540;-74
2021/10/23 10:05:39;;;;;;;84.70;52.50;;;10.50;99.90;;;;;;5107241;28;20111;-74
2021/10/23 10:08:09;;;;;;;85.63;50.53;;;10.50;99.90;;;;;;5112957;28;20027;-75
2021/10/23 10:10:37;;;;;;;93.15;51.70;;;10.60;99.90;;;;;;5110677;28;20031;-74
2021/10/23 10:13:03;;;;;;;80.97;47.28;;;10.60;99.90;;;;;;5112097;28;20157;-74
2021/10/23 10:15:30;;;;;;;74.43;46.60;;;10.70;99.90;;;;;;5112771;28;20034;-74
2021/10/23 10:18:00;;;;;;;74.25;46.10;;;10.80;99.90;;;;;;5108054;28;20107;-74
2021/10/23 10:20:26;;;;;;;68.00;44.70;;;10.90;99.90;;;;;;5076811;28;20120;-74
2021/10/23 10:22:53;;;;;;;65.63;42.70;;;10.90;99.90;;;;;;5096160;28;20073;-74
2021/10/23 10:25:24;;;;;;;63.88;40.10;;;11.00;99.90;;;;;;5110258;28;20028;-74
2021/10/23 10:27:52;;;;;;;60.28;38.83;;;11.10;99.90;;;;;;5096023;28;20133;-74
2021/10/23 10:30:29;;;;;;;58.45;38.47;;;11.10;99.90;;;;;;5107960;28;20068;-73
2021/10/23 10:33:16;;;;;;;62.40;38.80;;;11.30;99.90;;;;;;5112501;28;20012;-73
2021/10/23 10:36:06;;;;;;;51.30;37.13;;;11.40;99.90;;;;;;5095441;28;20111;-73
2021/10/23 10:44:09;;;;;;;54.20;33.92;;;11.60;99.90;;;;;;5112683;28;20069;-73
2021/10/23 10:46:56;;;;;;;55.13;35.13;;;11.70;99.90;;;;;;5096016;28;20027;-73
2021/10/23 10:49:42;;;;;;;44.92;31.27;;;11.80;99.90;;;;;;5102850;28;20134;-73
2021/10/23 10:52:40;;;;;;;55.33;33.42;;;11.90;99.90;;;;;;5111818;28;20030;-74
2021/10/23 10:55:11;;;;;;;54.22;35.83;;;11.90;99.90;;;;;;5109054;28;20464;-73
2021/10/23 10:57:56;;;;;;;58.95;42.05;;;11.90;99.90;;;;;;5112870;28;20019;-73
2021/10/23 11:00:22;;;;;;;49.25;32.13;;;12.00;99.90;;;;;;5091842;28;20529;-73
2021/10/23 11:02:47;;;;;;;41.72;26.42;;;12.00;99.90;;;;;;5086635;28;20119;-74
2021/10/23 11:05:20;;;;;;;36.42;24.67;;;12.00;99.90;;;;;;5105195;28;20032;-73
2021/10/23 11:08:03;;;;;;;42.92;25.30;;;12.00;99.90;;;;;;5098714;28;20031;-74
2021/10/23 11:10:57;;;;;;;36.35;22.17;;;12.10;99.90;;;;;;5112365;28;20363;-73
2021/10/23 11:13:24;;;;;;;35.13;22.38;;;12.10;99.90;;;;;;5111852;28;20030;-73
2021/10/23 11:15:50;;;;;;;40.13;23.50;;;12.10;99.90;;;;;;5112186;28;20038;-73
2021/10/23 11:18:17;;;;;;;38.42;23.10;;;12.20;99.90;;;;;;5102621;28;20536;-73
2021/10/23 11:20:44;;;;;;;33.58;21.50;;;12.20;99.90;;;;;;5077878;28;20032;-73
2021/10/23 11:23:18;;;;;;;33.80;19.63;;;12.30;99.90;;;;;;5073975;28;20474;-73
2021/10/23 11:25:43;;;;;;;27.60;18.17;;;12.30;99.90;;;;;;5109881;28;20042;-73
2021/10/23 11:28:10;;;;;;;34.33;19.85;;;12.40;99.90;;;;;;5077735;28;20514;-73
2021/10/23 11:30:41;;;;;;;34.55;20.25;;;12.50;99.90;;;;;;5109716;28;20032;-73
2021/10/23 11:33:10;;;;;;;31.85;20.13;;;12.50;99.90;;;;;;5108885;28;20020;-73
2021/10/23 11:35:41;;;;;;;28.85;17.67;;;12.60;99.90;;;;;;5112090;28;20020;-72
2021/10/23 11:38:13;;;;;;;27.42;19.55;;;12.70;99.90;;;;;;5110131;28;20107;-73
2021/10/23 11:40:40;;;;;;;33.22;20.98;;;12.70;99.90;;;;;;5097377;28;20028;-72
2021/10/23 11:43:07;;;;;;;32.28;19.80;;;12.70;99.90;;;;;;5094604;28;20028;-73
2021/10/23 11:45:35;;;;;;;29.58;19.75;;;12.70;99.90;;;;;;5111955;28;20028;-73
2021/10/23 11:48:04;;;;;;;35.17;21.33;;;12.70;99.90;;;;;;5110645;28;20573;-72
2021/10/23 11:50:33;;;;;;;32.58;21.63;;;12.60;99.90;;;;;;5109614;28;20023;-71
2021/10/23 11:53:17;;;;;;;28.45;19.17;;;12.60;99.90;;;;;;5090786;28;20030;-71
2021/10/23 11:55:48;;;;;;;27.13;18.75;;;12.70;99.90;;;;;;5088773;28;20024;-72
2021/10/23 11:58:17;;;;;;;29.65;19.23;;;12.70;99.90;;;;;;5076720;28;20066;-71
2021/10/23 12:00:45;;;;;;;32.47;19.30;;;12.80;99.90;;;;;;5081035;28;20028;-72
2021/10/23 12:03:14;;;;;;;28.88;20.27;;;12.90;99.90;;;;;;5091304;28;20441;-71
2021/10/23 12:05:41;;;;;;;34.25;20.95;;;12.90;99.90;;;;;;5098348;28;20092;-71
2021/10/23 12:08:28;;;;;;;31.83;19.92;;;13.00;99.90;;;;;;5091249;28;20023;-71
2021/10/23 12:11:10;;;;;;;28.00;18.17;;;13.10;99.90;;;;;;5102340;28;20024;-73
2021/10/23 12:13:48;;;;;;;24.20;17.25;;;13.10;99.90;;;;;;5105894;28;20367;-73
2021/10/23 12:16:15;;;;;;;29.52;16.30;;;13.20;99.90;;;;;;5088362;28;20026;-73
2021/10/23 12:18:44;;;;;;;25.50;16.05;;;13.20;99.90;;;;;;5108155;28;20520;-72
2021/10/23 12:21:18;;;;;;;24.80;15.30;;;13.20;99.90;;;;;;5102784;28;20020;-72
2021/10/23 12:23:45;;;;;;;28.77;16.33;;;13.20;99.90;;;;;;5080590;28;20025;-72
2021/10/23 12:26:11;;;;;;;27.95;17.00;;;13.20;99.90;;;;;;5106881;28;20032;-74
2021/10/23 12:28:55;;;;;;;25.83;16.98;;;13.20;99.90;;;;;;5097010;28;20105;-71
2021/10/23 12:31:21;;;;;;;24.23;16.25;;;13.30;99.90;;;;;;5096761;28;20019;-72
2021/10/23 12:34:02;;;;;;;21.98;15.50;;;13.20;99.90;;;;;;5100289;28;20369;-73
2021/10/23 12:36:28;;;;;;;24.75;13.25;;;13.30;99.90;;;;;;5102955;28;20027;-72
2021/10/23 12:38:53;;;;;;;20.52;12.85;;;13.30;99.90;;;;;;5101978;28;20028;-73
2021/10/23 12:41:19;;;;;;;22.20;13.38;;;13.30;99.90;;;;;;5100594;28;20038;-72